Time;durP1;ratioP1;P1;durP2;ratioP2;P2;SDS_P1;SDS_P2;PMS_P1;PMS_P2;Temp;Humidity;BMP_temperature;BMP_pressure;BME280_temperature;BME280_humidity;BME280_pressure;Samples;Min_cycle;Max_cycle;Signal;HPM_P1;HPM_P2
2022/06/30 00:00:46;;;;;;;1.57;1.57;;;;;;;;;;6249599;22;20180;-84
2022/06/30 00:03:14;;;;;;;4.83;4.40;;;;;;;;;;6276321;22;20278;-82
2022/06/30 00:05:43;;;;;;;4.30;4.00;;;;;;;;;;6249523;22;20178;-83
2022/06/30 00:08:13;;;;;;;3.27;3.07;;;;;;;;;;6249712;22;20199;-83
2022/06/30 00:10:41;;;;;;;3.50;3.30;;;;;;;;;;6249486;22;20187;-83
2022/06/30 00:13:10;;;;;;;8.57;3.07;;;;;;;;;;6275275;22;20181;-83
2022/06/30 00:15:38;;;;;;;8.93;5.60;;;;;;;;;;6249725;22;20204;-83
2022/06/30 00:18:06;;;;;;;7.27;3.37;;;;;;;;;;6276669;22;20246;-82
2022/06/30 00:20:35;;;;;;;5.03;4.73;;;;;;;;;;6276892;22;20186;-83
2022/06/30 00:23:03;;;;;;;7.47;6.03;;;;;;;;;;6276771;22;20229;-83
2022/06/30 00:25:33;;;;;;;9.47;8.27;;;;;;;;;;6251274;22;20171;-83
2022/06/30 00:28:02;;;;;;;9.97;8.30;;;;;;;;;;6251571;22;20215;-82
2022/06/30 00:30:30;;;;;;;2.50;2.37;;;;;;;;;;6278627;22;20182;-83
2022/06/30 00:32:59;;;;;;;1.20;1.10;;;;;;;;;;6251657;22;20180;-83
2022/06/30 00:35:27;;;;;;;4.67;4.27;;;;;;;;;;6251504;22;20192;-83
2022/06/30 00:37:55;;;;;;;2.60;2.50;;;;;;;;;;6251499;22;20185;-83
2022/06/30 00:40:24;;;;;;;0.30;0.30;;;;;;;;;;6276661;22;20200;-82
2022/06/30 00:42:54;;;;;;;0.63;0.63;;;;;;;;;;6251413;22;20181;-83
2022/06/30 00:45:22;;;;;;;0.50;0.50;;;;;;;;;;6251527;22;20173;-83
2022/06/30 00:47:50;;;;;;;1.33;1.33;;;;;;;;;;6250998;22;20269;-83
2022/06/30 00:50:19;;;;;;;1.40;1.30;;;;;;;;;;6251050;22;20181;-83
2022/06/30 00:52:47;;;;;;;3.33;1.67;;;;;;;;;;6278079;22;20172;-83
2022/06/30 00:55:16;;;;;;;3.73;3.43;;;;;;;;;;6250983;22;20232;-83
2022/06/30 00:57:45;;;;;;;0.40;0.40;;;;;;;;;;6278029;22;20196;-82
2022/06/30 01:00:15;;;;;;;4.87;3.43;;;;;;;;;;6251524;22;20200;-83
2022/06/30 01:02:44;;;;;;;0.80;0.80;;;;;;;;;;6251243;22;20226;-83
2022/06/30 01:05:13;;;;;;;2.70;1.67;;;;;;;;;;6251012;22;20212;-83
2022/06/30 01:07:42;;;;;;;7.33;5.63;;;;;;;;;;6277740;22;20199;-83
2022/06/30 01:12:59;;;;;;;10.40;8.47;;;;;;;;;;6276722;22;20195;-83
2022/06/30 01:15:29;;;;;;;4.27;4.07;;;;;;;;;;6250772;22;20287;-83
2022/06/30 01:17:58;;;;;;;18.53;13.13;;;;;;;;;;6277806;22;20173;-83
2022/06/30 01:20:27;;;;;;;17.37;11.60;;;;;;;;;;6250687;22;20229;-83
2022/06/30 01:22:56;;;;;;;2.87;2.77;;;;;;;;;;6250601;22;20189;-83
2022/06/30 01:25:25;;;;;;;5.60;4.97;;;;;;;;;;6277903;22;20270;-83
2022/06/30 01:27:54;;;;;;;10.33;9.20;;;;;;;;;;6277710;22;20208;-83
2022/06/30 01:30:23;;;;;;;12.80;10.43;;;;;;;;;;6277753;22;20188;-83
2022/06/30 01:32:52;;;;;;;7.43;6.73;;;;;;;;;;6250406;22;20184;-83
2022/06/30 01:35:20;;;;;;;1.57;1.53;;;;;;;;;;6250641;22;20199;-83
2022/06/30 01:37:50;;;;;;;17.27;15.53;;;;;;;;;;6277562;22;20244;-83
2022/06/30 01:40:20;;;;;;;12.77;11.60;;;;;;;;;;6250837;22;20180;-83
2022/06/30 01:42:49;;;;;;;6.97;6.27;;;;;;;;;;6277572;22;20202;-83
2022/06/30 01:45:17;;;;;;;8.27;7.20;;;;;;;;;;6250935;22;20220;-83
2022/06/30 01:47:45;;;;;;;7.53;4.77;;;;;;;;;;6277905;22;20191;-83
2022/06/30 01:50:15;;;;;;;4.10;3.23;;;;;;;;;;6250884;22;20181;-83
2022/06/30 01:52:43;;;;;;;7.43;5.80;;;;;;;;;;6249611;22;20176;-82
2022/06/30 01:55:12;;;;;;;1.40;1.17;;;;;;;;;;6277323;22;20192;-83
2022/06/30 01:57:42;;;;;;;3.33;3.00;;;;;;;;;;6250917;22;20177;-82
2022/06/30 02:00:12;;;;;;;8.07;5.97;;;;;;;;;;6250453;22;20176;-83
2022/06/30 02:02:40;;;;;;;2.80;2.43;;;;;;;;;;6250397;22;20176;-85
2022/06/30 02:05:09;;;;;;;4.60;4.30;;;;;;;;;;6251058;22;20265;-83
2022/06/30 02:07:39;;;;;;;5.60;4.83;;;;;;;;;;6250305;22;20230;-83
2022/06/30 02:10:08;;;;;;;1.23;1.23;;;;;;;;;;6250030;22;20261;-82
2022/06/30 02:12:45;;;;;;;3.10;2.90;;;;;;;;;;6277060;22;20173;-83
2022/06/30 02:15:16;;;;;;;5.83;5.40;;;;;;;;;;6250550;22;20188;-82
2022/06/30 02:17:47;;;;;;;3.23;3.10;;;;;;;;;;6250394;22;20258;-82
2022/06/30 02:20:21;;;;;;;6.13;5.47;;;;;;;;;;6249820;22;20181;-82
2022/06/30 02:22:50;;;;;;;3.93;3.70;;;;;;;;;;6249821;22;20179;-83
2022/06/30 02:25:19;;;;;;;9.07;2.83;;;;;;;;;;6277082;22;20222;-83
2022/06/30 02:27:47;;;;;;;12.73;7.97;;;;;;;;;;6249201;22;20267;-83
2022/06/30 02:30:18;;;;;;;4.93;4.30;;;;;;;;;;6277218;22;20173;-83
2022/06/30 02:32:47;;;;;;;0.67;0.67;;;;;;;;;;6250754;22;20194;-83
2022/06/30 02:35:15;;;;;;;1.47;1.37;;;;;;;;;;6276869;22;20194;-83
2022/06/30 02:37:44;;;;;;;3.10;1.63;;;;;;;;;;6249194;22;20173;-83
2022/06/30 02:40:12;;;;;;;9.47;8.33;;;;;;;;;;6250104;22;20179;-83
2022/06/30 02:42:41;;;;;;;8.30;6.77;;;;;;;;;;6250177;22;20179;-83
2022/06/30 02:45:10;;;;;;;3.10;2.90;;;;;;;;;;6250266;22;20180;-84
2022/06/30 02:47:40;;;;;;;2.93;2.73;;;;;;;;;;6249633;22;20184;-83
2022/06/30 02:50:11;;;;;;;1.90;1.80;;;;;;;;;;6249677;22;20176;-84
2022/06/30 02:52:40;;;;;;;4.43;3.63;;;;;;;;;;6276947;22;20199;-84
2022/06/30 02:55:08;;;;;;;8.17;7.07;;;;;;;;;;6250407;22;20198;-84
2022/06/30 02:57:37;;;;;;;13.97;12.27;;;;;;;;;;6250016;22;20246;-84
2022/06/30 03:00:07;;;;;;;0.90;0.90;;;;;;;;;;6276619;22;20173;-84
2022/06/30 03:02:35;;;;;;;0.90;0.90;;;;;;;;;;6250075;22;20261;-84
2022/06/30 03:05:05;;;;;;;11.97;10.57;;;;;;;;;;6250068;22;20200;-84
2022/06/30 03:07:34;;;;;;;0.63;0.63;;;;;;;;;;6250345;22;20179;-84
2022/06/30 03:10:03;;;;;;;2.57;2.43;;;;;;;;;;6250275;22;20208;-84
2022/06/30 03:12:31;;;;;;;0.57;0.57;;;;;;;;;;6250084;22;20189;-84
2022/06/30 03:14:59;;;;;;;2.47;2.37;;;;;;;;;;6249807;22;20171;-83
2022/06/30 03:17:28;;;;;;;11.37;2.40;;;;;;;;;;6250399;22;20187;-83
2022/06/30 03:19:57;;;;;;;0.50;0.50;;;;;;;;;;6249487;22;20176;-83
2022/06/30 03:22:26;;;;;;;1.13;1.13;;;;;;;;;;6250003;22;20186;-83
2022/06/30 03:24:55;;;;;;;0.57;0.57;;;;;;;;;;6276370;22;20170;-83
2022/06/30 03:27:23;;;;;;;26.17;21.63;;;;;;;;;;6276324;22;20191;-84
2022/06/30 03:29:52;;;;;;;0.53;0.53;;;;;;;;;;6249646;22;20189;-83
2022/06/30 03:32:20;;;;;;;2.10;2.00;;;;;;;;;;6249526;22;20261;-83
2022/06/30 03:34:48;;;;;;;15.83;8.23;;;;;;;;;;6249689;22;20232;-83
2022/06/30 03:37:17;;;;;;;0.50;0.50;;;;;;;;;;6249664;22;20196;-83
2022/06/30 03:39:47;;;;;;;0.47;0.47;;;;;;;;;;6249894;22;20175;-84
2022/06/30 03:42:15;;;;;;;5.67;5.20;;;;;;;;;;6249633;22;20258;-83
2022/06/30 03:44:44;;;;;;;5.27;4.47;;;;;;;;;;6276403;22;20183;-83
2022/06/30 03:47:12;;;;;;;4.57;4.10;;;;;;;;;;6276132;22;20164;-84
2022/06/30 03:49:41;;;;;;;2.70;2.53;;;;;;;;;;6249664;22;20173;-84
2022/06/30 03:52:09;;;;;;;0.77;0.77;;;;;;;;;;6276623;22;20172;-83
2022/06/30 03:54:38;;;;;;;1.27;1.27;;;;;;;;;;6250110;22;20305;-83
2022/06/30 03:57:08;;;;;;;17.03;12.60;;;;;;;;;;6249314;22;20283;-83
2022/06/30 03:59:37;;;;;;;16.80;12.83;;;;;;;;;;6278834;22;20165;-83
2022/06/30 04:02:06;;;;;;;0.70;0.70;;;;;;;;;;6278644;22;20173;-83
2022/06/30 04:04:35;;;;;;;5.10;3.53;;;;;;;;;;6251993;22;20190;-83
2022/06/30 04:07:03;;;;;;;1.50;1.50;;;;;;;;;;6279007;22;20172;-83
2022/06/30 04:09:32;;;;;;;0.30;0.30;;;;;;;;;;6278429;22;20255;-83
2022/06/30 04:12:00;;;;;;;1.87;1.77;;;;;;;;;;6251617;22;20169;-84
2022/06/30 04:14:30;;;;;;;0.30;0.30;;;;;;;;;;6278586;22;20172;-83
2022/06/30 04:16:59;;;;;;;1.30;1.30;;;;;;;;;;6278518;22;20180;-82
2022/06/30 04:19:27;;;;;;;2.60;2.40;;;;;;;;;;6251629;22;20235;-82
2022/06/30 04:21:55;;;;;;;2.13;2.03;;;;;;;;;;6251449;22;20170;-82
2022/06/30 04:24:24;;;;;;;1.23;1.23;;;;;;;;;;6251416;22;20209;-83
2022/06/30 04:26:52;;;;;;;0.77;0.77;;;;;;;;;;6278466;22;20257;-83
2022/06/30 04:29:21;;;;;;;1.53;1.53;;;;;;;;;;6251041;22;20208;-83
2022/06/30 04:34:36;;;;;;;0.70;0.70;;;;;;;;;;6251447;22;20172;-83
2022/06/30 04:37:05;;;;;;;0.87;0.87;;;;;;;;;;6251312;22;20253;-84
2022/06/30 04:39:34;;;;;;;1.57;1.53;;;;;;;;;;6251498;22;20197;-84
2022/06/30 04:42:01;;;;;;;0.97;0.97;;;;;;;;;;6251299;22;20259;-83
2022/06/30 04:44:30;;;;;;;0.80;0.80;;;;;;;;;;6251230;22;20200;-83
2022/06/30 04:46:59;;;;;;;2.80;2.70;;;;;;;;;;6251125;22;20182;-83
2022/06/30 04:49:28;;;;;;;0.80;0.80;;;;;;;;;;6251301;22;20342;-83
2022/06/30 04:51:56;;;;;;;1.40;1.40;;;;;;;;;;6278102;22;20192;-83
2022/06/30 04:54:25;;;;;;;0.87;0.87;;;;;;;;;;6250968;22;20184;-83
2022/06/30 04:56:54;;;;;;;3.27;2.60;;;;;;;;;;6251262;22;20242;-83
2022/06/30 04:59:22;;;;;;;0.90;0.90;;;;;;;;;;6251194;22;20244;-83
2022/06/30 05:01:51;;;;;;;20.37;11.90;;;;;;;;;;6251250;22;20230;-83
2022/06/30 05:04:21;;;;;;;1.97;1.73;;;;;;;;;;6278117;22;20190;-83
2022/06/30 05:06:52;;;;;;;1.37;1.37;;;;;;;;;;6251473;22;20225;-83
2022/06/30 05:09:20;;;;;;;0.80;0.80;;;;;;;;;;6250652;22;20211;-83
2022/06/30 05:11:49;;;;;;;1.07;1.03;;;;;;;;;;6251670;22;20177;-84
2022/06/30 05:14:17;;;;;;;8.97;6.13;;;;;;;;;;6250719;22;20182;-83
2022/06/30 05:16:46;;;;;;;9.13;8.23;;;;;;;;;;6250881;22;20289;-83
2022/06/30 05:19:15;;;;;;;7.47;6.27;;;;;;;;;;6250980;22;20184;-83
2022/06/30 05:21:45;;;;;;;7.43;6.77;;;;;;;;;;6250820;22;20186;-83
2022/06/30 05:26:59;;;;;;;3.90;3.13;;;;;;;;;;6250938;22;20185;-82
2022/06/30 05:29:27;;;;;;;31.67;11.53;;;;;;;;;;6194642;23;20184;-84
2022/06/30 05:31:56;;;;;;;0.90;0.90;;;;;;;;;;6194865;23;20180;-84
2022/06/30 05:34:24;;;;;;;3.93;3.47;;;;;;;;;;6195884;23;20206;-83
2022/06/30 05:36:54;;;;;;;5.23;3.47;;;;;;;;;;6094098;23;20186;-83
2022/06/30 05:39:23;;;;;;;3.63;3.33;;;;;;;;;;6195085;23;20204;-83
2022/06/30 05:41:51;;;;;;;2.70;2.50;;;;;;;;;;6194460;23;20195;-84
2022/06/30 05:44:20;;;;;;;5.37;2.67;;;;;;;;;;6194969;23;20221;-83
2022/06/30 05:46:49;;;;;;;0.97;0.97;;;;;;;;;;6093434;23;20221;-78
2022/06/30 05:49:17;;;;;;;3.50;1.33;;;;;;;;;;6195037;23;20184;-78
2022/06/30 05:51:45;;;;;;;2.00;1.87;;;;;;;;;;6195205;23;20230;-79
2022/06/30 05:54:15;;;;;;;1.60;1.47;;;;;;;;;;6195070;23;20184;-82
2022/06/30 05:56:44;;;;;;;1.90;1.40;;;;;;;;;;6195284;23;20177;-82
2022/06/30 05:59:13;;;;;;;2.03;1.83;;;;;;;;;;6194666;23;20259;-83
2022/06/30 06:01:41;;;;;;;1.53;1.43;;;;;;;;;;6195432;23;20185;-82
2022/06/30 06:04:10;;;;;;;4.60;1.80;;;;;;;;;;6194463;23;20202;-82
2022/06/30 06:06:38;;;;;;;1.70;1.40;;;;;;;;;;6093583;23;20187;-82
2022/06/30 06:09:07;;;;;;;1.47;1.37;;;;;;;;;;6194580;23;20179;-83
2022/06/30 06:11:37;;;;;;;1.07;1.07;;;;;;;;;;6093178;23;20258;-82
2022/06/30 06:14:05;;;;;;;4.73;3.10;;;;;;;;;;6194052;23;20189;-83
2022/06/30 06:16:36;;;;;;;1.87;1.50;;;;;;;;;;6093917;23;20176;-82
2022/06/30 06:19:05;;;;;;;1.53;1.43;;;;;;;;;;6093443;23;20184;-83
2022/06/30 06:21:36;;;;;;;1.40;1.30;;;;;;;;;;6194083;23;20206;-83
2022/06/30 06:24:04;;;;;;;1.70;1.60;;;;;;;;;;6093243;23;20168;-84
2022/06/30 06:26:32;;;;;;;1.23;1.13;;;;;;;;;;6093330;23;20225;-83
2022/06/30 06:29:09;;;;;;;2.53;2.17;;;;;;;;;;6244660;22;20208;-83
2022/06/30 06:31:38;;;;;;;1.40;1.30;;;;;;;;;;6250160;22;20182;-82
2022/06/30 06:34:07;;;;;;;4.73;2.53;;;;;;;;;;6250455;22;20178;-82
2022/06/30 06:36:36;;;;;;;2.50;1.50;;;;;;;;;;6250138;22;20179;-83
2022/06/30 06:39:05;;;;;;;4.60;1.60;;;;;;;;;;6250615;22;20197;-84
2022/06/30 06:41:34;;;;;;;0.67;0.67;;;;;;;;;;6250016;22;20180;-83
2022/06/30 06:44:06;;;;;;;2.17;1.20;;;;;;;;;;6276731;22;20179;-83
2022/06/30 06:46:34;;;;;;;1.67;1.57;;;;;;;;;;6276737;22;20181;-83
2022/06/30 06:49:04;;;;;;;6.53;2.00;;;;;;;;;;6277417;22;20165;-83
2022/06/30 06:51:39;;;;;;;2.37;1.47;;;;;;;;;;6250298;22;20186;-83
2022/06/30 06:54:09;;;;;;;0.87;0.87;;;;;;;;;;6250133;22;20185;-83
2022/06/30 06:56:38;;;;;;;1.93;1.30;;;;;;;;;;6250417;22;20176;-83
2022/06/30 06:59:09;;;;;;;1.13;1.03;;;;;;;;;;6249915;22;20232;-84
2022/06/30 07:01:41;;;;;;;1.23;0.97;;;;;;;;;;6249788;22;20179;-83
2022/06/30 07:04:10;;;;;;;1.13;1.03;;;;;;;;;;6249696;22;20197;-83
2022/06/30 07:06:41;;;;;;;5.10;1.33;;;;;;;;;;6250321;22;20211;-83
2022/06/30 07:09:12;;;;;;;2.73;1.33;;;;;;;;;;6250541;22;20241;-84
2022/06/30 07:11:48;;;;;;;2.47;1.80;;;;;;;;;;6249744;22;20182;-83
2022/06/30 07:14:21;;;;;;;1.83;1.37;;;;;;;;;;6250364;22;20179;-83
2022/06/30 07:16:54;;;;;;;4.30;1.43;;;;;;;;;;6250217;22;20180;-83
2022/06/30 07:19:27;;;;;;;4.73;1.23;;;;;;;;;;6249403;22;20193;-83
2022/06/30 07:26:03;;;;;;;1.60;1.03;;;;;;;;;;6156562;23;20182;-86
2022/06/30 07:32:25;;;;;;;0.83;0.83;;;;;;;;;;6256711;22;20183;-86
2022/06/30 07:35:12;;;;;;;1.07;1.07;;;;;;;;;;6257130;22;20200;-86
2022/06/30 07:38:06;;;;;;;2.50;1.10;;;;;;;;;;6255442;22;20198;-85
2022/06/30 07:41:05;;;;;;;0.30;0.30;;;;;;;;;;6251796;22;20162;-83
2022/06/30 07:43:54;;;;;;;0.90;0.83;;;;;;;;;;6250616;22;20201;-86
2022/06/30 07:53:35;;;;;;;1.53;1.33;;;;;;;;;;6226679;22;20176;-85
2022/06/30 07:56:41;;;;;;;0.60;0.60;;;;;;;;;;6251102;22;20190;-85
2022/06/30 07:59:46;;;;;;;1.93;1.13;;;;;;;;;;6250760;22;20202;-85
2022/06/30 08:02:51;;;;;;;3.40;2.20;;;;;;;;;;6245482;22;20248;-85
2022/06/30 08:05:44;;;;;;;7.93;0.70;;;;;;;;;;6252243;22;20183;-86
2022/06/30 08:08:39;;;;;;;3.13;0.93;;;;;;;;;;6252651;22;20177;-85
2022/06/30 08:11:28;;;;;;;0.97;0.90;;;;;;;;;;6253806;22;20262;-85
2022/06/30 08:14:14;;;;;;;2.93;2.63;;;;;;;;;;6254002;22;20173;-84
2022/06/30 08:26:53;;;;;;;0.47;0.47;;;;;;;;;;6255043;22;20180;-86
2022/06/30 08:29:48;;;;;;;0.30;0.30;;;;;;;;;;6249896;22;20262;-85
2022/06/30 08:33:00;;;;;;;1.00;0.70;;;;;;;;;;6251674;22;20218;-85
2022/06/30 08:35:58;;;;;;;0.50;0.50;;;;;;;;;;6251930;22;20170;-85
2022/06/30 08:38:53;;;;;;;0.33;0.33;;;;;;;;;;6251012;22;20224;-85
2022/06/30 08:48:05;;;;;;;1.43;1.33;;;;;;;;;;6125526;23;20184;-86
2022/06/30 08:50:51;;;;;;;3.03;0.57;;;;;;;;;;6101643;23;20191;-85
2022/06/30 08:57:19;;;;;;;0.83;0.83;;;;;;;;;;6130677;22;20181;-84
2022/06/30 09:00:03;;;;;;;1.43;0.83;;;;;;;;;;6253040;22;20192;-84
2022/06/30 09:06:18;;;;;;;1.40;0.90;;;;;;;;;;6129309;23;20263;-86
2022/06/30 09:09:24;;;;;;;1.80;1.00;;;;;;;;;;6129526;23;20177;-86
2022/06/30 09:15:02;;;;;;;2.13;1.10;;;;;;;;;;6232115;22;20174;-86
2022/06/30 09:17:49;;;;;;;0.90;0.90;;;;;;;;;;6251491;22;20179;-84
2022/06/30 09:23:52;;;;;;;0.67;0.40;;;;;;;;;;6250554;22;20177;-85
2022/06/30 09:26:54;;;;;;;0.77;0.77;;;;;;;;;;6249873;22;20173;-85
2022/06/30 09:30:12;;;;;;;1.73;0.77;;;;;;;;;;6249872;22;20210;-86
2022/06/30 09:33:13;;;;;;;0.30;0.30;;;;;;;;;;6249639;22;20175;-85
2022/06/30 09:36:28;;;;;;;0.83;0.83;;;;;;;;;;6242957;22;20237;-85
2022/06/30 09:39:36;;;;;;;0.77;0.73;;;;;;;;;;6250595;22;20221;-85
2022/06/30 09:42:47;;;;;;;1.50;0.80;;;;;;;;;;6212009;22;20176;-84
2022/06/30 09:45:38;;;;;;;0.40;0.40;;;;;;;;;;6251863;22;20183;-85
2022/06/30 09:48:15;;;;;;;2.70;0.80;;;;;;;;;;6251686;22;20174;-85
2022/06/30 09:51:17;;;;;;;0.50;0.50;;;;;;;;;;6250883;22;20176;-85
2022/06/30 10:00:15;;;;;;;3.50;1.23;;;;;;;;;;6251583;22;20203;-85
2022/06/30 10:02:57;;;;;;;0.37;0.37;;;;;;;;;;6251629;22;20186;-86
2022/06/30 10:05:45;;;;;;;;;;;;;;;;;;;;;
2022/06/30 10:08:50;;;;;;;0.63;0.63;;;;;;;;;;6251832;22;20215;-85
2022/06/30 10:11:44;;;;;;;2.80;0.60;;;;;;;;;;6251419;22;20172;-86
2022/06/30 10:14:26;;;;;;;0.57;0.57;;;;;;;;;;6251512;22;20266;-85
2022/06/30 10:17:07;;;;;;;0.47;0.47;;;;;;;;;;6251348;22;20234;-86
2022/06/30 10:19:43;;;;;;;2.10;0.87;;;;;;;;;;6251664;22;20195;-85
2022/06/30 10:22:17;;;;;;;0.40;0.40;;;;;;;;;;6251056;22;20226;-84
2022/06/30 10:24:53;;;;;;;0.50;0.50;;;;;;;;;;6250822;22;20261;-84
2022/06/30 10:27:25;;;;;;;0.80;0.80;;;;;;;;;;6251104;22;20461;-85
2022/06/30 10:29:56;;;;;;;0.50;0.50;;;;;;;;;;6251162;22;20287;-85
2022/06/30 10:32:37;;;;;;;0.50;0.50;;;;;;;;;;6250951;22;20231;-85
2022/06/30 10:38:25;;;;;;;0.40;0.40;;;;;;;;;;6251908;22;20207;-86
2022/06/30 10:41:17;;;;;;;0.43;0.43;;;;;;;;;;6250848;22;20196;-85
2022/06/30 10:44:20;;;;;;;0.30;0.30;;;;;;;;;;6251790;22;20182;-85
2022/06/30 10:47:09;;;;;;;1.57;0.93;;;;;;;;;;6237501;22;20181;-85
2022/06/30 10:49:58;;;;;;;0.30;0.30;;;;;;;;;;6250373;22;20177;-84
2022/06/30 10:52:48;;;;;;;1.30;1.20;;;;;;;;;;6250650;22;20177;-84
2022/06/30 10:55:48;;;;;;;1.03;0.60;;;;;;;;;;6250101;22;20179;-84
2022/06/30 10:58:41;;;;;;;3.97;0.73;;;;;;;;;;6250486;22;20179;-84
2022/06/30 11:01:33;;;;;;;0.60;0.60;;;;;;;;;;6248930;22;20200;-85
2022/06/30 11:04:16;;;;;;;1.40;0.97;;;;;;;;;;6247683;22;20302;-82
2022/06/30 11:07:02;;;;;;;0.73;0.73;;;;;;;;;;6250018;22;20182;-83
2022/06/30 11:13:28;;;;;;;1.17;0.80;;;;;;;;;;6128032;23;20221;-85
2022/06/30 11:16:49;;;;;;;0.43;0.43;;;;;;;;;;6126055;23;20232;-84
2022/06/30 11:19:57;;;;;;;0.83;0.83;;;;;;;;;;6125521;23;20182;-84
2022/06/30 11:23:08;;;;;;;;;;;;;;;;;;;;;
2022/06/30 11:29:05;;;;;;;0.50;0.50;;;;;;;;;;6249002;22;20214;-79
2022/06/30 11:31:35;;;;;;;1.80;0.97;;;;;;;;;;6249372;22;20175;-81
2022/06/30 11:34:06;;;;;;;0.37;0.37;;;;;;;;;;6248402;22;20185;-81
2022/06/30 11:36:37;;;;;;;0.60;0.60;;;;;;;;;;6247857;22;20193;-81
2022/06/30 11:39:08;;;;;;;0.60;0.60;;;;;;;;;;6249174;22;20232;-81
2022/06/30 11:41:57;;;;;;;0.30;0.30;;;;;;;;;;6248748;22;20207;-84
2022/06/30 11:52:11;;;;;;;0.30;0.30;;;;;;;;;;5984079;23;20178;-86
2022/06/30 11:59:10;;;;;;;0.57;0.47;;;;;;;;;;6003660;23;20186;-84
2022/06/30 12:01:44;;;;;;;0.37;0.37;;;;;;;;;;6094139;23;20300;-83
2022/06/30 12:04:18;;;;;;;0.63;0.63;;;;;;;;;;6122730;23;20206;-84
2022/06/30 12:06:57;;;;;;;0.87;0.87;;;;;;;;;;6099059;23;20178;-85
2022/06/30 12:09:32;;;;;;;0.60;0.60;;;;;;;;;;6196123;22;20194;-81
2022/06/30 12:12:05;;;;;;;0.73;0.73;;;;;;;;;;6247690;22;20188;-81
2022/06/30 12:14:38;;;;;;;0.57;0.57;;;;;;;;;;6246143;22;20535;-82
2022/06/30 12:17:14;;;;;;;2.37;1.00;;;;;;;;;;6248372;22;20186;-83
2022/06/30 12:19:47;;;;;;;0.73;0.73;;;;;;;;;;6272885;22;20177;-82
2022/06/30 12:25:13;;;;;;;0.70;0.70;;;;;;;;;;6248072;22;20177;-81
2022/06/30 12:27:52;;;;;;;2.53;1.23;;;;;;;;;;6249955;22;20187;-83
2022/06/30 12:30:27;;;;;;;1.70;0.73;;;;;;;;;;6249935;22;20181;-84
2022/06/30 12:33:10;;;;;;;0.97;0.50;;;;;;;;;;6249799;22;20184;-84
2022/06/30 12:35:50;;;;;;;1.60;0.83;;;;;;;;;;6251318;22;20186;-83
2022/06/30 12:41:41;;;;;;;0.83;0.83;;;;;;;;;;6252472;22;20218;-84
2022/06/30 12:44:31;;;;;;;0.30;0.30;;;;;;;;;;6251853;22;20177;-83
2022/06/30 12:47:14;;;;;;;0.60;0.60;;;;;;;;;;6250773;22;20253;-85
2022/06/30 12:49:45;;;;;;;0.80;0.40;;;;;;;;;;6250314;22;20178;-82
2022/06/30 12:52:19;;;;;;;0.53;0.53;;;;;;;;;;6249693;22;20186;-83
2022/06/30 12:55:03;;;;;;;0.43;0.43;;;;;;;;;;6251527;22;20183;-84
2022/06/30 12:58:00;;;;;;;0.40;0.40;;;;;;;;;;6251041;22;20201;-84
2022/06/30 13:01:17;;;;;;;1.03;0.73;;;;;;;;;;6251390;22;20271;-82
2022/06/30 13:04:03;;;;;;;0.30;0.30;;;;;;;;;;6250425;22;20233;-85
2022/06/30 13:07:16;;;;;;;0.80;0.80;;;;;;;;;;6251437;22;20200;-85
2022/06/30 13:10:10;;;;;;;0.50;0.50;;;;;;;;;;6234994;22;20186;-85
2022/06/30 13:13:05;;;;;;;0.50;0.50;;;;;;;;;;6275743;22;20171;-86
2022/06/30 13:15:43;;;;;;;1.43;1.33;;;;;;;;;;6248286;22;20184;-83
2022/06/30 13:18:30;;;;;;;1.27;0.53;;;;;;;;;;6250055;22;20206;-84
2022/06/30 13:21:21;;;;;;;1.70;0.60;;;;;;;;;;6248703;22;20194;-83
2022/06/30 13:23:58;;;;;;;0.90;0.67;;;;;;;;;;6249551;22;20208;-81
2022/06/30 13:26:37;;;;;;;1.10;1.00;;;;;;;;;;6249710;22;20181;-82
2022/06/30 13:29:11;;;;;;;4.80;0.90;;;;;;;;;;6249591;22;20242;-83
2022/06/30 13:31:49;;;;;;;0.43;0.43;;;;;;;;;;6250004;22;20182;-84
2022/06/30 13:34:49;;;;;;;0.53;0.53;;;;;;;;;;6250018;22;20213;-84
2022/06/30 13:37:26;;;;;;;0.37;0.37;;;;;;;;;;6249973;22;20242;-84
2022/06/30 13:43:22;;;;;;;0.40;0.40;;;;;;;;;;6244723;22;20250;-84
2022/06/30 13:46:28;;;;;;;0.90;0.90;;;;;;;;;;6248583;22;20251;-84
2022/06/30 13:49:56;;;;;;;0.90;0.90;;;;;;;;;;6252605;22;20174;-83
2022/06/30 13:56:20;;;;;;;0.20;0.20;;;;;;;;;;6186939;23;20176;-84
2022/06/30 13:59:01;;;;;;;2.23;0.60;;;;;;;;;;6248472;22;20207;-84
2022/06/30 14:02:00;;;;;;;0.50;0.50;;;;;;;;;;6250526;22;20195;-85
2022/06/30 14:05:00;;;;;;;0.60;0.60;;;;;;;;;;6279073;22;20194;-87
2022/06/30 14:07:46;;;;;;;0.30;0.30;;;;;;;;;;6250824;22;20181;-83
2022/06/30 14:10:21;;;;;;;1.60;0.90;;;;;;;;;;6248633;22;20195;-83
2022/06/30 14:12:58;;;;;;;1.07;0.67;;;;;;;;;;6250039;22;20184;-84
2022/06/30 14:15:30;;;;;;;1.07;1.07;;;;;;;;;;6249953;22;20213;-81
2022/06/30 14:18:11;;;;;;;0.37;0.37;;;;;;;;;;6250091;22;20182;-82
2022/06/30 14:20:46;;;;;;;1.03;0.50;;;;;;;;;;6248704;22;20267;-82
2022/06/30 14:23:23;;;;;;;0.30;0.30;;;;;;;;;;6250907;22;20177;-83
2022/06/30 14:26:18;;;;;;;1.10;1.00;;;;;;;;;;6250830;22;20181;-82
2022/06/30 14:28:56;;;;;;;0.97;0.50;;;;;;;;;;6231232;22;20205;-82
2022/06/30 14:31:36;;;;;;;2.37;1.00;;;;;;;;;;6249796;22;20187;-83
2022/06/30 14:37:14;;;;;;;0.60;0.60;;;;;;;;;;6248312;22;20223;-83
2022/06/30 14:39:54;;;;;;;0.70;0.70;;;;;;;;;;6246421;22;20222;-83
2022/06/30 14:42:47;;;;;;;0.60;0.60;;;;;;;;;;6245774;22;20249;-84
2022/06/30 14:45:32;;;;;;;0.63;0.63;;;;;;;;;;6247497;22;20187;-84
2022/06/30 14:48:07;;;;;;;1.40;1.23;;;;;;;;;;6246378;22;20203;-83
2022/06/30 14:50:37;;;;;;;1.30;0.70;;;;;;;;;;6247972;22;20176;-85
2022/06/30 14:53:09;;;;;;;0.37;0.37;;;;;;;;;;6249305;22;20183;-85
2022/06/30 14:56:12;;;;;;;0.70;0.70;;;;;;;;;;6249174;22;20173;-83
2022/06/30 14:58:45;;;;;;;1.50;0.90;;;;;;;;;;6245031;22;20176;-83
2022/06/30 15:01:19;;;;;;;1.20;1.10;;;;;;;;;;6246915;22;20195;-82
2022/06/30 15:03:53;;;;;;;2.53;0.83;;;;;;;;;;6245644;22;20290;-84
2022/06/30 15:06:24;;;;;;;0.57;0.57;;;;;;;;;;6273976;22;20169;-83
2022/06/30 15:09:00;;;;;;;0.77;0.70;;;;;;;;;;6248592;22;20247;-82
2022/06/30 15:11:31;;;;;;;0.83;0.70;;;;;;;;;;6246420;22;20260;-83
2022/06/30 15:14:18;;;;;;;1.13;0.90;;;;;;;;;;6246325;22;20180;-83
2022/06/30 15:17:13;;;;;;;0.57;0.57;;;;;;;;;;6247038;22;20177;-83
2022/06/30 15:19:44;;;;;;;1.30;0.43;;;;;;;;;;6246320;22;20284;-84
2022/06/30 15:25:12;;;;;;;0.60;0.60;;;;;;;;;;6247451;22;20337;-83
2022/06/30 15:27:48;;;;;;;1.23;0.60;;;;;;;;;;6246247;22;20262;-84
2022/06/30 15:30:27;;;;;;;0.80;0.50;;;;;;;;;;6245738;22;20216;-83
2022/06/30 15:32:59;;;;;;;0.40;0.40;;;;;;;;;;6247260;22;20176;-84
2022/06/30 15:35:28;;;;;;;0.63;0.63;;;;;;;;;;6246944;22;20202;-83
2022/06/30 15:37:56;;;;;;;2.40;1.63;;;;;;;;;;6248008;22;20178;-83
2022/06/30 15:40:25;;;;;;;0.70;0.70;;;;;;;;;;6247862;22;20176;-84
2022/06/30 15:42:53;;;;;;;1.53;0.70;;;;;;;;;;6247127;22;20193;-84
2022/06/30 15:45:23;;;;;;;2.37;1.27;;;;;;;;;;6245925;22;20180;-83
2022/06/30 15:47:51;;;;;;;0.40;0.40;;;;;;;;;;6245767;22;20187;-84
2022/06/30 15:50:22;;;;;;;0.60;0.60;;;;;;;;;;6246449;22;20225;-83
2022/06/30 15:52:53;;;;;;;1.40;1.23;;;;;;;;;;6247254;22;20211;-81
2022/06/30 15:55:22;;;;;;;0.97;0.97;;;;;;;;;;6248727;22;20186;-83
2022/06/30 15:57:50;;;;;;;5.33;1.53;;;;;;;;;;6248947;22;20172;-83
2022/06/30 16:00:21;;;;;;;1.03;0.97;;;;;;;;;;6248614;22;20232;-83
2022/06/30 16:02:49;;;;;;;3.63;1.57;;;;;;;;;;6248446;22;20190;-83
2022/06/30 16:05:26;;;;;;;2.17;1.50;;;;;;;;;;6247391;22;20181;-83
2022/06/30 16:07:58;;;;;;;2.20;1.20;;;;;;;;;;6249001;22;20172;-83
2022/06/30 16:10:26;;;;;;;1.20;1.10;;;;;;;;;;6248976;22;20175;-84
2022/06/30 16:12:54;;;;;;;2.53;1.17;;;;;;;;;;6248923;22;20233;-84
2022/06/30 16:15:23;;;;;;;3.23;1.47;;;;;;;;;;6275600;22;20165;-84
2022/06/30 16:17:53;;;;;;;2.03;1.23;;;;;;;;;;6248602;22;20169;-84
2022/06/30 16:20:21;;;;;;;1.93;1.77;;;;;;;;;;6247978;22;20238;-84
2022/06/30 16:22:51;;;;;;;3.70;1.00;;;;;;;;;;6274755;22;20214;-85
2022/06/30 16:25:19;;;;;;;1.30;1.20;;;;;;;;;;6275386;22;20189;-85
2022/06/30 16:27:48;;;;;;;1.20;1.10;;;;;;;;;;6249948;22;20242;-84
2022/06/30 16:30:17;;;;;;;2.30;2.03;;;;;;;;;;6275867;22;20203;-84
2022/06/30 16:32:46;;;;;;;2.80;1.73;;;;;;;;;;6249223;22;20272;-84
2022/06/30 16:35:14;;;;;;;2.47;1.80;;;;;;;;;;6275365;22;20171;-84
2022/06/30 16:37:43;;;;;;;2.30;1.37;;;;;;;;;;6248185;22;20179;-84
2022/06/30 16:40:13;;;;;;;1.93;1.70;;;;;;;;;;6248675;22;20202;-83
2022/06/30 16:42:42;;;;;;;6.57;2.97;;;;;;;;;;6248687;22;20205;-83
2022/06/30 16:45:11;;;;;;;2.63;1.63;;;;;;;;;;6248399;22;20179;-83
2022/06/30 16:47:43;;;;;;;2.50;1.40;;;;;;;;;;6274984;22;20198;-83
2022/06/30 16:50:13;;;;;;;1.07;1.00;;;;;;;;;;6247634;22;20205;-83
2022/06/30 16:52:42;;;;;;;3.03;1.37;;;;;;;;;;6248774;22;20169;-83
2022/06/30 16:55:10;;;;;;;2.50;1.87;;;;;;;;;;6248384;22;20174;-83
2022/06/30 16:57:44;;;;;;;2.37;2.10;;;;;;;;;;6249627;22;20199;-85
2022/06/30 17:00:12;;;;;;;1.00;1.00;;;;;;;;;;6251132;22;20180;-85
2022/06/30 17:02:41;;;;;;;4.20;1.87;;;;;;;;;;6277282;22;20196;-85
2022/06/30 17:05:09;;;;;;;1.17;1.07;;;;;;;;;;6250390;22;20194;-85
2022/06/30 17:07:38;;;;;;;2.33;2.03;;;;;;;;;;6251297;22;20174;-86
2022/06/30 17:10:07;;;;;;;2.60;2.07;;;;;;;;;;6251133;22;20240;-87
2022/06/30 17:12:35;;;;;;;1.83;1.13;;;;;;;;;;6250646;22;20169;-87
2022/06/30 17:15:05;;;;;;;2.53;1.63;;;;;;;;;;6251199;22;20256;-87